Time;durP1;ratioP1;P1;durP2;ratioP2;P2;SDS_P1;SDS_P2;PMS_P1;PMS_P2;Temp;Humidity;BMP_temperature;BMP_pressure;BME280_temperature;BME280_humidity;BME280_pressure;Samples;Min_cycle;Max_cycle;Signal;HPM_P1;HPM_P2
2021/09/11 00:01:30;;;;;;;;;;;18.10;99.90;;;;;;5137790;27;19923;-80
2021/09/11 00:03:56;;;;;;;;;;;18.10;99.90;;;;;;5137567;27;19930;-82
2021/09/11 00:06:23;;;;;;;;;;;18.10;99.90;;;;;;5137435;27;19934;-82
2021/09/11 00:08:54;;;;;;;;;;;18.00;99.90;;;;;;5137383;27;19930;-80
2021/09/11 00:11:23;;;;;;;;;;;18.00;99.90;;;;;;5137613;27;20407;-80
2021/09/11 00:13:53;;;;;;;;;;;18.00;99.90;;;;;;5137632;27;19929;-81
2021/09/11 00:16:24;;;;;;;;;;;18.00;99.90;;;;;;5137332;27;19961;-81
2021/09/11 00:18:51;;;;;;;;;;;17.90;99.90;;;;;;5136015;27;19931;-81
2021/09/11 00:21:18;;;;;;;;;;;17.90;99.90;;;;;;5137372;27;19937;-81
2021/09/11 00:23:46;;;;;;;;;;;17.90;99.90;;;;;;5137189;27;19929;-81
2021/09/11 00:26:19;;;;;;;;;;;17.90;99.90;;;;;;5137207;27;19987;-82
2021/09/11 00:28:47;;;;;;;;;;;17.90;99.90;;;;;;5137183;27;19928;-81
2021/09/11 00:31:15;;;;;;;;;;;17.90;99.90;;;;;;5137069;27;19934;-81
2021/09/11 00:33:43;;;;;;;;;;;17.90;99.90;;;;;;5136916;27;20279;-81
2021/09/11 00:36:14;;;;;;;;;;;17.90;99.90;;;;;;5128190;27;19924;-81
2021/09/11 00:38:44;;;;;;;;;;;17.90;99.90;;;;;;5136807;27;20428;-81
2021/09/11 00:41:11;;;;;;;;;;;17.90;99.90;;;;;;5136859;27;20228;-81
2021/09/11 00:43:44;;;;;;;;;;;17.80;99.90;;;;;;5136727;27;19923;-80
2021/09/11 00:46:12;;;;;;;;;;;17.80;99.90;;;;;;5136854;27;19934;-82
2021/09/11 00:48:40;;;;;;;;;;;17.80;99.90;;;;;;5137019;27;19923;-80
2021/09/11 00:51:07;;;;;;;;;;;17.80;99.90;;;;;;5136935;27;19923;-84
2021/09/11 00:53:34;;;;;;;;;;;17.80;99.90;;;;;;5136855;27;19923;-82
2021/09/11 00:56:01;;;;;;;;;;;17.80;99.90;;;;;;5136598;27;19923;-82
2021/09/11 00:58:27;;;;;;;;;;;17.80;99.90;;;;;;5136413;27;19923;-83
2021/09/11 01:00:56;;;;;;;;;;;17.80;99.90;;;;;;5136238;27;19934;-82
2021/09/11 01:03:23;;;;;;;;;;;17.80;99.90;;;;;;5136437;27;19930;-82
2021/09/11 01:05:49;;;;;;;;;;;17.80;99.90;;;;;;5136388;27;19930;-84
2021/09/11 01:08:16;;;;;;;;;;;17.70;99.90;;;;;;5136025;27;19928;-83
2021/09/11 01:10:43;;;;;;;;;;;17.70;99.90;;;;;;5136641;27;20231;-84
2021/09/11 01:13:10;;;;;;;;;;;17.70;99.90;;;;;;5136267;27;20366;-84
2021/09/11 01:15:37;;;;;;;;;;;17.70;99.90;;;;;;5136248;27;20373;-82
2021/09/11 01:18:06;;;;;;;;;;;17.70;99.90;;;;;;5136231;27;19950;-82
2021/09/11 01:20:33;;;;;;;;;;;17.70;99.90;;;;;;5136116;27;19924;-83
2021/09/11 01:23:00;;;;;;;;;;;17.70;99.90;;;;;;5136187;27;19924;-82
2021/09/11 01:25:28;;;;;;;;;;;17.70;99.90;;;;;;5136363;27;19974;-82
2021/09/11 01:27:55;;;;;;;;;;;17.70;99.90;;;;;;5136253;27;19936;-81
2021/09/11 01:30:22;;;;;;;;;;;17.70;99.90;;;;;;5136290;27;19924;-82
2021/09/11 01:32:49;;;;;;;;;;;17.70;99.90;;;;;;5136104;27;19934;-82
2021/09/11 01:35:15;;;;;;;;;;;17.60;99.90;;;;;;5136035;27;19923;-81
2021/09/11 01:37:44;;;;;;;;;;;17.60;99.90;;;;;;5135992;28;19927;-82
2021/09/11 01:40:11;;;;;;;;;;;17.60;99.90;;;;;;5135990;28;20010;-80
2021/09/11 01:42:40;;;;;;;;;;;17.50;99.90;;;;;;5136003;28;19966;-80
2021/09/11 01:45:09;;;;;;;;;;;17.50;99.90;;;;;;5135921;28;19927;-80
2021/09/11 01:47:37;;;;;;;;;;;17.40;99.90;;;;;;5135964;28;19924;-81
2021/09/11 01:50:08;;;;;;;;;;;17.40;99.90;;;;;;5136085;28;20274;-80
2021/09/11 01:52:36;;;;;;;;;;;17.40;99.90;;;;;;5135912;28;19923;-80
2021/09/11 01:55:07;;;;;;;;;;;17.40;99.90;;;;;;5135791;28;20254;-81
2021/09/11 01:57:35;;;;;;;;;;;17.30;99.90;;;;;;5135507;28;19988;-80
2021/09/11 02:00:05;;;;;;;;;;;17.30;99.90;;;;;;5135955;28;19923;-81
2021/09/11 02:02:33;;;;;;;;;;;17.40;99.90;;;;;;5135740;28;20267;-81
2021/09/11 02:05:01;;;;;;;;;;;17.40;99.90;;;;;;5135715;28;19923;-81
2021/09/11 02:07:29;;;;;;;;;;;17.40;99.90;;;;;;5135650;28;19934;-81
2021/09/11 02:09:57;;;;;;;;;;;17.40;99.90;;;;;;5136101;28;19949;-82
2021/09/11 02:12:24;;;;;;;;;;;17.40;99.90;;;;;;5135995;28;19923;-81
2021/09/11 02:14:52;;;;;;;;;;;17.40;99.90;;;;;;5135911;28;19930;-81
2021/09/11 02:17:21;;;;;;;;;;;17.40;99.90;;;;;;5127893;28;19928;-82
2021/09/11 02:19:48;;;;;;;;;;;17.40;99.90;;;;;;5135364;28;19934;-81
2021/09/11 02:22:15;;;;;;;;;;;17.40;99.90;;;;;;5135462;28;19987;-81
2021/09/11 02:24:41;;;;;;;;;;;17.50;99.90;;;;;;5135475;28;20478;-81
2021/09/11 02:27:08;;;;;;;;;;;17.50;99.90;;;;;;5135607;28;19924;-81
2021/09/11 02:29:35;;;;;;;;;;;17.50;99.90;;;;;;5135454;28;19923;-81
2021/09/11 02:32:04;;;;;;;;;;;17.50;99.90;;;;;;5135567;28;19924;-81
2021/09/11 02:34:32;;;;;;;;;;;17.50;99.90;;;;;;5134617;28;20006;-81
2021/09/11 02:36:59;;;;;;;;;;;17.50;99.90;;;;;;5135636;28;19934;-81
2021/09/11 02:39:26;;;;;;;;;;;17.50;99.90;;;;;;5135597;28;19924;-81
2021/09/11 02:41:53;;;;;;;;;;;17.50;99.90;;;;;;5136747;27;19923;-81
2021/09/11 02:44:20;;;;;;;;;;;17.50;99.90;;;;;;5139216;27;19934;-81
2021/09/11 02:46:46;;;;;;;;;;;17.50;99.90;;;;;;5139128;27;19923;-81
2021/09/11 02:49:13;;;;;;;;;;;17.50;99.90;;;;;;5139321;27;20535;-81
2021/09/11 02:51:42;;;;;;;;;;;17.50;99.90;;;;;;5139021;27;19930;-80
2021/09/11 02:54:08;;;;;;;;;;;17.50;99.90;;;;;;5138915;27;19934;-81
2021/09/11 02:56:35;;;;;;;;;;;17.50;99.90;;;;;;5138994;27;19923;-80
2021/09/11 02:59:02;;;;;;;;;;;17.50;99.90;;;;;;5138812;27;19934;-81
2021/09/11 03:01:29;;;;;;;;;;;17.50;99.90;;;;;;5138901;27;19929;-81
2021/09/11 03:03:56;;;;;;;;;;;17.50;99.90;;;;;;5138757;27;19924;-81
2021/09/11 03:06:23;;;;;;;;;;;17.50;99.90;;;;;;5138816;27;20242;-80
2021/09/11 03:08:51;;;;;;;;;;;17.60;99.90;;;;;;5138960;27;20258;-81
2021/09/11 03:11:18;;;;;;;;;;;17.60;99.90;;;;;;5138566;27;19923;-81
2021/09/11 03:13:44;;;;;;;;;;;17.60;99.90;;;;;;5138709;27;20301;-80
2021/09/11 03:16:11;;;;;;;;;;;17.60;99.90;;;;;;5138333;27;20390;-81
2021/09/11 03:18:38;;;;;;;;;;;17.60;99.90;;;;;;5138420;27;20282;-80
2021/09/11 03:21:05;;;;;;;;;;;17.60;99.90;;;;;;5138705;27;19933;-81
2021/09/11 03:23:32;;;;;;;;;;;17.60;99.90;;;;;;5138653;27;19980;-80
2021/09/11 03:26:00;;;;;;;;;;;17.50;99.90;;;;;;5138269;27;20377;-81
2021/09/11 03:28:28;;;;;;;;;;;17.50;99.90;;;;;;5138388;27;20309;-81
2021/09/11 03:30:55;;;;;;;;;;;17.50;99.90;;;;;;5138415;27;20422;-81
2021/09/11 03:33:22;;;;;;;;;;;17.50;99.90;;;;;;5138111;27;20347;-80
2021/09/11 03:35:49;;;;;;;;;;;17.50;99.90;;;;;;5138143;27;20350;-80
2021/09/11 03:38:16;;;;;;;;;;;17.50;99.90;;;;;;5138106;27;19934;-81
2021/09/11 03:40:42;;;;;;;;;;;17.50;99.90;;;;;;5137972;27;19930;-81
2021/09/11 03:43:11;;;;;;;;;;;17.50;99.90;;;;;;5138061;27;19924;-81
2021/09/11 03:45:38;;;;;;;;;;;17.50;99.90;;;;;;5137865;27;19946;-81
2021/09/11 03:48:05;;;;;;;;;;;17.50;99.90;;;;;;5137948;27;19945;-80
2021/09/11 03:50:32;;;;;;;;;;;17.50;99.90;;;;;;5138064;27;19934;-81
2021/09/11 03:52:58;;;;;;;;;;;17.50;99.90;;;;;;5137212;27;19927;-81
2021/09/11 03:55:25;;;;;;;;;;;17.50;99.90;;;;;;5137649;27;20285;-80
2021/09/11 03:57:52;;;;;;;;;;;17.40;99.90;;;;;;5137808;27;19929;-80
2021/09/11 04:00:21;;;;;;;;;;;17.40;99.90;;;;;;5137536;27;19934;-80
2021/09/11 04:02:47;;;;;;;;;;;17.40;99.90;;;;;;5138044;27;20024;-80
2021/09/11 04:05:14;;;;;;;;;;;17.40;99.90;;;;;;5137706;27;19933;-82
2021/09/11 04:07:41;;;;;;;;;;;17.30;99.90;;;;;;5137582;27;19934;-80
2021/09/11 04:10:08;;;;;;;;;;;17.30;99.90;;;;;;5137451;27;20299;-80
2021/09/11 04:12:35;;;;;;;;;;;17.30;99.90;;;;;;5137614;27;19924;-80
2021/09/11 04:15:02;;;;;;;;;;;17.30;99.90;;;;;;5137445;27;20274;-80
2021/09/11 04:17:30;;;;;;;;;;;17.30;99.90;;;;;;5136950;27;20251;-80
2021/09/11 04:19:57;;;;;;;;;;;17.30;99.90;;;;;;5137139;27;19923;-80
2021/09/11 04:22:24;;;;;;;;;;;17.30;99.90;;;;;;5137304;27;19934;-80
2021/09/11 04:24:51;;;;;;;;;;;17.30;99.90;;;;;;5137277;27;19934;-80
2021/09/11 04:27:18;;;;;;;;;;;17.30;99.90;;;;;;5137326;27;20298;-80
2021/09/11 04:29:44;;;;;;;;;;;17.30;99.90;;;;;;5136892;27;19923;-80
2021/09/11 04:32:11;;;;;;;;;;;17.30;99.90;;;;;;5137097;27;19933;-80
2021/09/11 04:34:40;;;;;;;;;;;17.30;99.90;;;;;;5136980;27;19923;-80
2021/09/11 04:37:07;;;;;;;;;;;17.30;99.90;;;;;;5136996;27;19930;-81
2021/09/11 04:39:34;;;;;;;;;;;17.30;99.90;;;;;;5136920;27;19933;-80
2021/09/11 04:42:01;;;;;;;;;;;17.30;99.90;;;;;;5136923;27;20275;-80
2021/09/11 04:44:28;;;;;;;;;;;17.30;99.90;;;;;;5136746;27;20335;-81
2021/09/11 04:46:55;;;;;;;;;;;17.30;99.90;;;;;;5136906;27;19924;-80
2021/09/11 04:49:22;;;;;;;;;;;17.30;99.90;;;;;;5136771;27;19923;-81
2021/09/11 04:51:50;;;;;;;;;;;17.30;99.90;;;;;;5136740;27;19934;-80
2021/09/11 04:54:17;;;;;;;;;;;17.30;99.90;;;;;;5136785;27;20335;-81
2021/09/11 04:56:44;;;;;;;;;;;17.30;99.90;;;;;;5136575;27;19923;-80
2021/09/11 04:59:10;;;;;;;;;;;17.30;99.90;;;;;;5136749;27;19928;-80
2021/09/11 05:01:37;;;;;;;;;;;17.30;99.90;;;;;;5136815;27;19964;-80
2021/09/11 05:04:04;;;;;;;;;;;17.30;99.90;;;;;;5136374;27;19924;-80
2021/09/11 05:06:31;;;;;;;;;;;17.30;99.90;;;;;;5136641;27;19931;-80
2021/09/11 05:08:59;;;;;;;;;;;17.30;99.90;;;;;;5136541;27;19933;-80
2021/09/11 05:11:26;;;;;;;;;;;17.30;99.90;;;;;;5136202;27;20251;-80
2021/09/11 05:13:53;;;;;;;;;;;17.30;99.90;;;;;;5136374;27;19924;-80
2021/09/11 05:16:20;;;;;;;;;;;17.30;99.90;;;;;;5136147;27;19927;-80
2021/09/11 05:18:47;;;;;;;;;;;17.30;99.90;;;;;;5136260;27;19923;-80
2021/09/11 05:21:13;;;;;;;;;;;17.30;99.90;;;;;;5136194;27;19923;-80
2021/09/11 05:23:40;;;;;;;;;;;17.30;99.90;;;;;;5136230;27;19938;-81
2021/09/11 05:26:08;;;;;;;;;;;17.20;99.90;;;;;;5136160;27;19923;-80
2021/09/11 05:28:35;;;;;;;;;;;17.20;99.90;;;;;;5136189;27;20335;-81
2021/09/11 05:31:02;;;;;;;;;;;17.20;99.90;;;;;;5136002;27;19923;-80
2021/09/11 05:33:29;;;;;;;;;;;17.20;99.90;;;;;;5136133;27;20010;-81
2021/09/11 05:35:56;;;;;;;;;;;17.20;99.90;;;;;;5136083;27;20343;-80
2021/09/11 05:38:23;;;;;;;;;;;17.20;99.90;;;;;;5136032;28;19930;-80
2021/09/11 05:40:50;;;;;;;;;;;17.20;99.90;;;;;;5135976;28;19923;-80
2021/09/11 05:43:18;;;;;;;;;;;17.10;99.90;;;;;;5136256;28;20266;-81
2021/09/11 05:45:45;;;;;;;;;;;17.10;99.90;;;;;;5135798;28;19931;-81
2021/09/11 05:48:12;;;;;;;;;;;17.10;99.90;;;;;;5135947;28;19928;-80
2021/09/11 05:50:38;;;;;;;;;;;17.10;99.90;;;;;;5135846;28;19923;-80
2021/09/11 05:53:05;;;;;;;;;;;17.10;99.90;;;;;;5135892;28;19929;-81
2021/09/11 05:55:32;;;;;;;;;;;17.10;99.90;;;;;;5135815;28;19933;-79
2021/09/11 05:57:59;;;;;;;;;;;17.10;99.90;;;;;;5136056;28;19934;-80
2021/09/11 06:00:27;;;;;;;;;;;17.10;99.90;;;;;;5135779;28;20351;-79
2021/09/11 06:02:54;;;;;;;;;;;17.10;99.90;;;;;;5135822;28;19923;-80
2021/09/11 06:05:21;;;;;;;;;;;17.10;99.90;;;;;;5135810;28;19928;-79
2021/09/11 06:07:48;;;;;;;;;;;17.10;99.90;;;;;;5135886;28;19923;-79
2021/09/11 06:10:15;;;;;;;;;;;17.10;99.90;;;;;;5135774;28;19930;-80
2021/09/11 06:12:41;;;;;;;;;;;17.10;99.90;;;;;;5135940;28;19968;-79
2021/09/11 06:15:09;;;;;;;;;;;17.10;99.90;;;;;;5135842;28;19923;-79
2021/09/11 06:17:37;;;;;;;;;;;17.10;99.90;;;;;;5137900;27;19934;-80
2021/09/11 06:20:05;;;;;;;;;;;17.10;99.90;;;;;;5139613;27;20274;-79
2021/09/11 06:22:32;;;;;;;;;;;17.10;99.90;;;;;;5139531;27;20025;-80
2021/09/11 06:24:58;;;;;;;;;;;17.10;99.90;;;;;;5139476;27;19945;-79
2021/09/11 06:27:25;;;;;;;;;;;17.20;99.90;;;;;;5139410;27;19923;-79
2021/09/11 06:29:52;;;;;;;;;;;17.20;99.90;;;;;;5139427;27;19923;-80
2021/09/11 06:32:19;;;;;;;;;;;17.10;99.90;;;;;;5139563;27;19934;-80
2021/09/11 06:34:47;;;;;;;;;;;17.20;99.90;;;;;;5139353;27;19923;-80
2021/09/11 06:37:14;;;;;;;;;;;17.20;99.90;;;;;;5139640;27;19924;-80
2021/09/11 06:39:41;;;;;;;;;;;17.20;99.90;;;;;;5139303;27;19934;-80
2021/09/11 06:42:08;;;;;;;;;;;17.20;99.90;;;;;;5139104;27;19934;-80
2021/09/11 06:44:35;;;;;;;;;;;17.30;99.90;;;;;;5139247;27;19971;-80
2021/09/11 06:47:02;;;;;;;;;;;17.30;99.90;;;;;;5139164;27;19923;-80
2021/09/11 06:49:28;;;;;;;;;;;17.30;99.90;;;;;;5139234;27;19924;-80
2021/09/11 06:51:57;;;;;;;;;;;17.30;99.90;;;;;;5139108;27;19923;-80
2021/09/11 06:54:23;;;;;;;;;;;17.30;99.90;;;;;;5138874;27;20338;-80
2021/09/11 06:56:50;;;;;;;;;;;17.30;99.90;;;;;;5138957;27;19931;-80
2021/09/11 06:59:17;;;;;;;;;;;17.40;99.90;;;;;;5139049;27;19923;-79
2021/09/11 07:01:44;;;;;;;;;;;17.40;99.90;;;;;;5138782;27;19923;-80
2021/09/11 07:04:11;;;;;;;;;;;17.40;99.90;;;;;;5138775;27;19938;-80
2021/09/11 07:06:38;;;;;;;;;;;17.40;99.90;;;;;;5138896;27;19923;-79
2021/09/11 07:09:06;;;;;;;;;;;17.40;99.90;;;;;;5139028;27;19923;-79
2021/09/11 07:11:33;;;;;;;;;;;17.50;99.90;;;;;;5138755;27;20363;-79
2021/09/11 07:14:00;;;;;;;;;;;17.50;99.90;;;;;;5138628;27;19923;-79
2021/09/11 07:16:27;;;;;;;;;;;17.60;99.90;;;;;;5138258;27;19934;-80
2021/09/11 07:18:53;;;;;;;;;;;17.60;99.90;;;;;;5138552;27;19924;-80
2021/09/11 07:21:20;;;;;;;;;;;17.60;99.90;;;;;;5138813;27;19928;-80
2021/09/11 07:23:47;;;;;;;;;;;17.60;99.90;;;;;;5138711;27;19933;-80
2021/09/11 07:26:18;;;;;;;;;;;17.60;99.90;;;;;;5138405;27;20278;-80
2021/09/11 07:28:45;;;;;;;;;;;17.50;99.90;;;;;;5138275;27;19923;-80
2021/09/11 07:31:12;;;;;;;;;;;17.50;99.90;;;;;;5138335;27;19927;-80
2021/09/11 07:33:39;;;;;;;;;;;17.60;99.90;;;;;;5138378;27;19923;-79
2021/09/11 07:36:07;;;;;;;;;;;17.60;99.90;;;;;;5138054;27;19966;-80
2021/09/11 07:38:35;;;;;;;;;;;17.60;99.90;;;;;;5138044;27;20358;-80
2021/09/11 07:41:04;;;;;;;;;;;17.60;99.90;;;;;;5138222;27;19924;-80
2021/09/11 07:43:33;;;;;;;;;;;17.60;99.90;;;;;;5138116;27;20013;-79
2021/09/11 07:46:02;;;;;;;;;;;17.60;99.90;;;;;;5137901;27;20350;-80
2021/09/11 07:48:30;;;;;;;;;;;17.60;99.90;;;;;;5138393;27;19927;-80
2021/09/11 07:50:58;;;;;;;;;;;17.60;99.90;;;;;;5138329;27;19923;-80
2021/09/11 07:53:26;;;;;;;;;;;17.60;99.90;;;;;;5137050;27;19923;-80
2021/09/11 07:55:54;;;;;;;;;;;17.60;99.90;;;;;;5137826;27;20244;-80
2021/09/11 07:58:22;;;;;;;;;;;17.60;99.90;;;;;;5137876;27;19933;-80
2021/09/11 08:00:54;;;;;;;;;;;17.60;99.90;;;;;;5137786;27;19927;-79
2021/09/11 08:03:24;;;;;;;;;;;17.60;99.90;;;;;;5137746;27;20331;-79
2021/09/11 08:05:52;;;;;;;;;;;17.70;99.90;;;;;;5137700;27;20374;-80
2021/09/11 08:08:20;;;;;;;;;;;17.70;99.90;;;;;;5137893;27;19933;-79
2021/09/11 08:10:48;;;;;;;;;;;17.70;99.90;;;;;;5137615;27;19924;-79
2021/09/11 08:13:16;;;;;;;;;;;17.60;99.90;;;;;;5137504;27;20263;-79
2021/09/11 08:15:44;;;;;;;;;;;17.60;99.90;;;;;;5137469;27;19933;-79
2021/09/11 08:18:14;;;;;;;;;;;17.60;99.90;;;;;;5137548;27;19927;-79
2021/09/11 08:20:43;;;;;;;;;;;17.70;99.90;;;;;;5137294;27;19923;-80
2021/09/11 08:23:11;;;;;;;;;;;17.70;99.90;;;;;;5137407;27;19930;-80
2021/09/11 08:25:39;;;;;;;;;;;17.70;99.90;;;;;;5137542;27;19935;-79
2021/09/11 08:28:07;;;;;;;;;;;17.70;99.90;;;;;;5137267;27;19924;-80
2021/09/11 08:30:35;;;;;;;;;;;17.80;99.90;;;;;;5137228;27;19923;-80
2021/09/11 08:33:03;;;;;;;;;;;17.80;99.90;;;;;;5137417;27;19927;-80
2021/09/11 08:35:32;;;;;;;;;;;17.80;99.90;;;;;;5137158;27;19934;-79
2021/09/11 08:38:00;;;;;;;;;;;17.90;99.90;;;;;;5136988;27;19923;-80
2021/09/11 08:40:28;;;;;;;;;;;18.00;99.90;;;;;;5136491;27;19923;-80
2021/09/11 08:42:55;;;;;;;;;;;18.00;99.90;;;;;;5137019;27;20262;-79
2021/09/11 08:45:23;;;;;;;;;;;18.00;99.90;;;;;;5136942;27;20262;-79
2021/09/11 08:47:53;;;;;;;;;;;18.10;99.90;;;;;;5137304;27;19933;-79
2021/09/11 08:50:21;;;;;;;;;;;18.10;99.90;;;;;;5136935;27;20259;-80
2021/09/11 08:52:54;;;;;;;;;;;18.10;99.90;;;;;;5136844;27;19927;-80
2021/09/11 08:55:22;;;;;;;;;;;18.00;99.90;;;;;;5137199;27;19933;-79
2021/09/11 08:58:00;;;;;;;;;;;18.10;99.90;;;;;;5136774;27;19923;-80
2021/09/11 09:00:37;;;;;;;;;;;18.10;99.90;;;;;;5136876;27;19927;-79
2021/09/11 09:03:21;;;;;;;;;;;18.20;99.90;;;;;;5136639;27;19995;-79
2021/09/11 09:05:49;;;;;;;;;;;18.30;99.90;;;;;;5136473;27;19930;-79
2021/09/11 09:08:22;;;;;;;;;;;18.40;99.90;;;;;;5136473;27;20377;-82
2021/09/11 09:10:50;;;;;;;;;;;18.40;99.90;;;;;;5136631;27;19923;-79
2021/09/11 09:13:17;;;;;;;;;;;18.40;99.90;;;;;;5136581;27;19923;-79
2021/09/11 09:15:45;;;;;;;;;;;18.40;99.90;;;;;;5136682;27;19924;-82
2021/09/11 09:18:12;;;;;;;;;;;18.40;99.90;;;;;;5136110;27;19942;-82
2021/09/11 09:20:40;;;;;;;;;;;18.40;99.90;;;;;;5136233;27;19933;-81
2021/09/11 09:23:16;;;;;;;;;;;18.40;99.90;;;;;;5136179;27;20370;-81
2021/09/11 09:25:46;;;;;;;;;;;18.40;99.90;;;;;;5136205;27;19964;-82
2021/09/11 09:28:15;;;;;;;;;;;18.40;99.90;;;;;;5136320;27;19924;-81
2021/09/11 09:30:44;;;;;;;;;;;18.50;99.90;;;;;;5136197;27;19927;-80
2021/09/11 09:33:18;;;;;;;;;;;18.40;99.90;;;;;;5136355;27;19923;-80
2021/09/11 09:35:47;;;;;;;;;;;18.40;99.90;;;;;;5136209;27;20346;-79
2021/09/11 09:38:15;;;;;;;;;;;18.40;99.90;;;;;;5136173;27;20401;-80
2021/09/11 09:40:43;;;;;;;;;;;18.30;99.90;;;;;;5136270;28;19977;-80
2021/09/11 09:43:14;;;;;;;;;;;18.40;99.90;;;;;;5136101;28;20297;-79
2021/09/11 09:45:42;;;;;;;;;;;18.40;99.90;;;;;;5136097;28;19934;-80
2021/09/11 09:48:11;;;;;;;;;;;18.40;99.90;;;;;;5136303;28;19933;-80
2021/09/11 09:50:39;;;;;;;;;;;18.40;99.90;;;;;;5136086;27;19930;-80
2021/09/11 09:53:07;;;;;;;;;;;18.50;99.90;;;;;;5139491;27;19923;-80
2021/09/11 09:55:36;;;;;;;;;;;18.60;99.90;;;;;;5140214;27;20010;-80
2021/09/11 09:58:04;;;;;;;;;;;18.60;99.90;;;;;;5140214;27;19934;-79
2021/09/11 10:00:35;;;;;;;;;;;18.60;99.90;;;;;;5140014;27;20366;-79
2021/09/11 10:03:04;;;;;;;;;;;18.50;99.90;;;;;;5139805;27;20282;-80
2021/09/11 10:05:34;;;;;;;;;;;18.50;99.90;;;;;;5140139;27;19934;-80
2021/09/11 10:08:04;;;;;;;;;;;18.40;99.90;;;;;;5139995;27;19923;-79
2021/09/11 10:10:35;;;;;;;;;;;18.40;99.90;;;;;;5139831;27;19924;-79
2021/09/11 10:13:15;;;;;;;;;;;18.40;99.90;;;;;;5140062;27;19956;-79
2021/09/11 10:15:54;;;;;;;;;;;18.40;99.90;;;;;;5139897;27;19935;-79
2021/09/11 10:18:39;;;;;;;;;;;18.40;99.90;;;;;;5139553;27;19924;-79
2021/09/11 10:21:13;;;;;;;;;;;18.40;99.90;;;;;;5139653;27;19924;-80
2021/09/11 10:23:41;;;;;;;;;;;18.40;99.90;;;;;;5139537;27;20339;-80
2021/09/11 10:26:29;;;;;;;;;;;18.50;99.90;;;;;;5139735;27;19930;-80
2021/09/11 10:28:58;;;;;;;;;;;18.50;99.90;;;;;;5139512;27;20366;-79
2021/09/11 10:31:27;;;;;;;;;;;18.50;99.90;;;;;;5139524;27;19924;-80
2021/09/11 10:34:02;;;;;;;;;;;18.50;99.90;;;;;;5139604;27;19941;-80
2021/09/11 10:36:48;;;;;;;;;;;18.50;99.90;;;;;;5139690;27;20027;-80
2021/09/11 10:39:16;;;;;;;;;;;18.50;99.90;;;;;;5139486;27;20258;-80
2021/09/11 10:41:44;;;;;;;;;;;18.60;99.90;;;;;;5138994;27;19927;-80
2021/09/11 10:44:12;;;;;;;;;;;18.70;99.90;;;;;;5138925;27;19923;-79
2021/09/11 10:46:57;;;;;;;;;;;18.70;99.90;;;;;;5139441;27;19923;-80
2021/09/11 10:49:26;;;;;;;;;;;18.80;99.90;;;;;;5139590;27;20308;-80
2021/09/11 10:52:04;;;;;;;;;;;18.80;99.90;;;;;;5139079;27;19983;-79
2021/09/11 10:54:32;;;;;;;;;;;18.80;99.90;;;;;;5138971;27;19988;-80
2021/09/11 10:57:07;;;;;;;;;;;18.80;99.90;;;;;;5138951;27;19924;-79
2021/09/11 10:59:39;;;;;;;;;;;18.80;99.90;;;;;;5139056;27;20220;-80
2021/09/11 11:02:23;;;;;;;;;;;19.00;99.90;;;;;;5138650;27;20035;-80
2021/09/11 11:04:58;;;;;;;;;;;19.00;99.90;;;;;;5138960;27;19923;-80
2021/09/11 11:07:28;;;;;;;;;;;19.10;99.90;;;;;;5138902;27;19930;-80
2021/09/11 11:09:57;;;;;;;;;;;19.00;99.90;;;;;;5139208;27;19945;-80
2021/09/11 11:12:25;;;;;;;;;;;19.10;99.90;;;;;;5139077;27;20256;-80
2021/09/11 11:14:54;;;;;;;;;;;19.00;99.90;;;;;;5138721;27;19933;-80
2021/09/11 11:17:24;;;;;;;;;;;19.00;99.90;;;;;;5138529;27;20228;-80
2021/09/11 11:19:51;;;;;;;;;;;19.00;99.90;;;;;;5138650;27;19924;-81
2021/09/11 11:22:30;;;;;;;;;;;19.00;99.90;;;;;;5138770;27;19923;-81
2021/09/11 11:24:59;;;;;;;;;;;19.10;99.90;;;;;;5138524;27;19923;-80
2021/09/11 11:27:30;;;;;;;;;;;19.20;99.90;;;;;;5138558;27;19934;-82
2021/09/11 11:29:59;;;;;;;;;;;19.20;99.90;;;;;;5138510;27;19934;-82
2021/09/11 11:32:28;;;;;;;;;;;19.30;99.90;;;;;;5138263;27;19924;-82
2021/09/11 11:35:00;;;;;;;;;;;19.40;99.90;;;;;;5138375;27;20278;-82
2021/09/11 11:37:29;;;;;;;;;;;19.50;99.90;;;;;;5138317;27;19932;-82
2021/09/11 11:39:58;;;;;;;;;;;19.60;99.90;;;;;;5138267;27;19923;-82
2021/09/11 11:42:27;;;;;;;;;;;19.50;99.90;;;;;;5138000;27;19934;-82
2021/09/11 11:44:56;;;;;;;;;;;19.60;99.90;;;;;;5138321;27;19938;-82
2021/09/11 11:47:42;;;;;;;;;;;19.60;99.90;;;;;;5137937;27;19923;-82
2021/09/11 11:50:16;;;;;;;;;;;19.70;99.90;;;;;;5121101;27;19924;-82
2021/09/11 11:52:44;;;;;;;;;;;19.90;99.90;;;;;;5138045;27;20374;-83
2021/09/11 11:55:13;;;;;;;;;;;19.90;99.90;;;;;;5137943;27;19933;-82
2021/09/11 11:57:41;;;;;;;;;;;19.90;99.90;;;;;;5138016;27;19924;-82
2021/09/11 12:00:11;;;;;;;;;;;19.80;99.90;;;;;;5137700;27;19923;-83
2021/09/11 12:02:40;;;;;;;;;;;19.80;99.90;;;;;;5138035;27;20023;-82
2021/09/11 12:05:21;;;;;;;;;;;19.70;99.90;;;;;;5137983;27;19931;-82
2021/09/11 12:07:55;;;;;;;;;;;19.70;99.90;;;;;;5137700;27;19952;-82
2021/09/11 12:10:23;;;;;;;;;;;19.70;99.90;;;;;;5137593;27;20393;-83
2021/09/11 12:12:52;;;;;;;;;;;19.80;99.90;;;;;;5137626;27;19923;-82
2021/09/11 12:15:20;;;;;;;;;;;19.80;99.90;;;;;;5136473;27;19923;-82
2021/09/11 12:18:00;;;;;;;;;;;19.70;99.90;;;;;;5137247;27;20255;-82
2021/09/11 12:20:41;;;;;;;;;;;19.80;99.90;;;;;;5137479;27;19933;-82
2021/09/11 12:23:11;;;;;;;;;;;19.80;99.90;;;;;;5137565;27;19935;-82
2021/09/11 12:25:54;;;;;;;;;;;19.80;99.90;;;;;;5137290;27;19923;-82
2021/09/11 12:28:43;;;;;;;;;;;19.80;99.90;;;;;;5137327;27;19935;-82
2021/09/11 12:31:26;;;;;;;;;;;19.80;99.90;;;;;;5137443;27;19934;-82
2021/09/11 12:33:55;;;;;;;;;;;19.70;99.90;;;;;;5137342;27;19924;-82
2021/09/11 12:36:35;;;;;;;;;;;19.70;99.90;;;;;;5137119;27;19934;-82
2021/09/11 12:39:08;;;;;;;;;;;19.80;99.90;;;;;;5136990;27;19923;-82
2021/09/11 12:41:37;;;;;;;;;;;19.80;99.90;;;;;;5136989;27;19928;-82
2021/09/11 12:44:05;;;;;;;;;;;19.80;99.90;;;;;;5136786;27;20270;-82
2021/09/11 12:46:34;;;;;;;;;;;19.80;99.90;;;;;;5137171;27;19924;-81
2021/09/11 12:49:02;;;;;;;;;;;19.80;99.90;;;;;;5136906;27;19988;-82
2021/09/11 12:51:30;;;;;;;;;;;19.80;99.90;;;;;;5136801;27;19930;-82
2021/09/11 12:54:00;;;;;;;;;;;19.90;99.90;;;;;;5136817;27;19924;-81
2021/09/11 12:56:28;;;;;;;;;;;20.00;99.90;;;;;;5137239;27;19933;-82
2021/09/11 12:58:57;;;;;;;;;;;20.10;99.90;;;;;;5136669;27;20262;-83
2021/09/11 13:01:24;;;;;;;;;;;20.10;99.90;;;;;;5136647;27;19923;-83
2021/09/11 13:03:52;;;;;;;;;;;20.10;99.90;;;;;;5134279;27;19927;-83
2021/09/11 13:06:20;;;;;;;;;;;20.10;99.90;;;;;;5136649;27;19982;-83
2021/09/11 13:08:49;;;;;;;;;;;20.10;99.90;;;;;;5136497;27;19923;-82
2021/09/11 13:11:18;;;;;;;;;;;20.10;99.90;;;;;;5136854;27;19949;-83
2021/09/11 13:13:48;;;;;;;;;;;20.10;99.90;;;;;;5136451;27;19928;-83
2021/09/11 13:16:19;;;;;;;;;;;20.10;99.90;;;;;;5136020;27;20022;-83
2021/09/11 13:18:47;;;;;;;;;;;20.10;99.90;;;;;;5136264;27;19923;-83
2021/09/11 13:21:18;;;;;;;;;;;20.10;99.90;;;;;;5136337;27;19988;-83
2021/09/11 13:23:45;;;;;;;;;;;20.00;99.90;;;;;;5136554;27;19931;-83
2021/09/11 13:26:15;;;;;;;;;;;20.00;99.90;;;;;;5135258;27;20400;-83
2021/09/11 13:28:45;;;;;;;;;;;19.90;99.90;;;;;;5136324;27;20244;-83
2021/09/11 13:31:13;;;;;;;;;;;19.80;99.90;;;;;;5136303;27;20018;-83
2021/09/11 13:33:42;;;;;;;;;;;19.80;99.90;;;;;;5136165;27;20336;-83
2021/09/11 13:36:10;;;;;;;;;;;19.70;99.90;;;;;;5136131;27;19933;-83
2021/09/11 13:38:38;;;;;;;;;;;19.80;99.90;;;;;;5136314;27;20240;-82
2021/09/11 13:41:06;;;;;;;;;;;19.80;99.90;;;;;;5136210;28;19927;-83
2021/09/11 13:43:35;;;;;;;;;;;19.90;99.90;;;;;;5136046;28;19934;-83
2021/09/11 13:46:04;;;;;;;;;;;19.80;99.90;;;;;;5136276;28;19927;-82
2021/09/11 13:48:32;;;;;;;;;;;19.80;99.90;;;;;;5135590;28;19923;-82
2021/09/11 13:51:00;;;;;;;;;;;19.70;99.90;;;;;;5135846;28;19924;-83
2021/09/11 13:53:27;;;;;;;;;;;19.80;99.90;;;;;;5136033;28;20251;-83
2021/09/11 13:55:57;;;;;;;;;;;19.80;99.90;;;;;;5134950;28;19924;-83
2021/09/11 13:58:24;;;;;;;;;;;19.80;99.90;;;;;;5135837;28;20309;-83
2021/09/11 14:00:51;;;;;;;;;;;19.80;99.90;;;;;;5136218;28;20262;-83
2021/09/11 14:03:19;;;;;;;;;;;19.80;99.90;;;;;;5135801;28;20332;-82
2021/09/11 14:05:46;;;;;;;;;;;19.80;99.90;;;;;;5135943;28;20361;-82
2021/09/11 14:08:16;;;;;;;;;;;19.70;99.90;;;;;;5135788;28;20469;-82
2021/09/11 14:10:44;;;;;;;;;;;19.60;99.90;;;;;;5135840;28;19924;-82
2021/09/11 14:13:14;;;;;;;;;;;19.60;99.90;;;;;;5136045;28;19933;-83
2021/09/11 14:15:42;;;;;;;;;;;19.60;99.90;;;;;;5135987;28;19924;-83
2021/09/11 14:18:10;;;;;;;;;;;19.70;99.90;;;;;;5135716;28;19933;-82
2021/09/11 14:20:39;;;;;;;;;;;19.70;99.90;;;;;;5135861;28;19924;-83
2021/09/11 14:23:07;;;;;;;;;;;19.70;99.90;;;;;;5135716;28;19924;-82
2021/09/11 14:25:35;;;;;;;;;;;19.80;99.90;;;;;;5135696;28;19931;-82